sensor_id;sensor_type;location;lat;lon;timestamp;pressure;altitude;pressure_sealevel;temperature;humidity
71666;BME280;59503;53.486;10.196;2023-03-26T00:00:46;70796.91;;;-142.58;100.00
71666;BME280;59503;53.486;10.196;2023-03-26T00:03:16;70796.91;;;-142.58;100.00
71666;BME280;59503;53.486;10.196;2023-03-26T00:05:43;70796.91;;;-142.58;100.00
71666;BME280;59503;53.486;10.196;2023-03-26T00:08:09;70796.91;;;-142.58;100.00
71666;BME280;59503;53.486;10.196;2023-03-26T00:10:36;70796.91;;;-142.58;100.00
71666;BME280;59503;53.486;10.196;2023-03-26T00:13:03;70796.91;;;-142.58;100.00
71666;BME280;59503;53.486;10.196;2023-03-26T00:15:30;70796.91;;;-142.58;100.00
71666;BME280;59503;53.486;10.196;2023-03-26T00:17:55;70796.91;;;-142.58;100.00
71666;BME280;59503;53.486;10.196;2023-03-26T00:20:21;70796.91;;;-142.58;100.00
71666;BME280;59503;53.486;10.196;2023-03-26T00:22:47;70796.91;;;-142.58;100.00
71666;BME280;59503;53.486;10.196;2023-03-26T00:25:13;70796.91;;;-142.58;100.00
71666;BME280;59503;53.486;10.196;2023-03-26T00:27:39;70796.91;;;-142.58;100.00
71666;BME280;59503;53.486;10.196;2023-03-26T00:30:05;70796.91;;;-142.58;100.00
71666;BME280;59503;53.486;10.196;2023-03-26T00:32:30;70796.91;;;-142.58;100.00
71666;BME280;59503;53.486;10.196;2023-03-26T00:34:56;70796.91;;;-142.58;100.00
71666;BME280;59503;53.486;10.196;2023-03-26T00:37:22;70796.91;;;-142.58;100.00
71666;BME280;59503;53.486;10.196;2023-03-26T00:39:53;70796.91;;;-142.58;100.00
71666;BME280;59503;53.486;10.196;2023-03-26T00:42:27;70796.91;;;-142.58;100.00
71666;BME280;59503;53.486;10.196;2023-03-26T00:44:53;70796.91;;;-142.58;100.00
71666;BME280;59503;53.486;10.196;2023-03-26T00:47:26;70796.91;;;-142.58;100.00
71666;BME280;59503;53.486;10.196;2023-03-26T00:49:52;70796.91;;;-142.58;100.00
71666;BME280;59503;53.486;10.196;2023-03-26T00:52:18;70796.91;;;-142.58;100.00
71666;BME280;59503;53.486;10.196;2023-03-26T00:54:50;70796.91;;;-142.58;100.00
71666;BME280;59503;53.486;10.196;2023-03-26T00:57:17;70796.91;;;-142.58;100.00
71666;BME280;59503;53.486;10.196;2023-03-26T00:59:44;70796.91;;;-142.58;100.00
71666;BME280;59503;53.486;10.196;2023-03-26T01:02:12;70796.91;;;-142.58;100.00
71666;BME280;59503;53.486;10.196;2023-03-26T01:04:43;70796.91;;;-142.58;100.00
71666;BME280;59503;53.486;10.196;2023-03-26T01:07:11;70796.91;;;-142.58;100.00
71666;BME280;59503;53.486;10.196;2023-03-26T01:09:42;70796.91;;;-142.58;100.00
71666;BME280;59503;53.486;10.196;2023-03-26T01:12:13;70796.91;;;-142.58;100.00
71666;BME280;59503;53.486;10.196;2023-03-26T01:14:43;70796.91;;;-142.58;100.00
71666;BME280;59503;53.486;10.196;2023-03-26T01:17:09;70796.91;;;-142.58;100.00
71666;BME280;59503;53.486;10.196;2023-03-26T01:22:35;70796.91;;;-142.58;100.00
71666;BME280;59503;53.486;10.196;2023-03-26T01:25:02;70796.91;;;-142.58;100.00
71666;BME280;59503;53.486;10.196;2023-03-26T01:27:47;70796.91;;;-142.58;100.00
71666;BME280;59503;53.486;10.196;2023-03-26T01:35:52;70796.91;;;-142.58;100.00
71666;BME280;59503;53.486;10.196;2023-03-26T01:41:24;70796.91;;;-142.58;100.00
71666;BME280;59503;53.486;10.196;2023-03-26T01:44:23;70796.91;;;-142.58;100.00
71666;BME280;59503;53.486;10.196;2023-03-26T01:46:52;70796.91;;;-142.58;100.00
71666;BME280;59503;53.486;10.196;2023-03-26T01:49:18;70796.91;;;-142.58;100.00
71666;BME280;59503;53.486;10.196;2023-03-26T01:51:44;70796.91;;;-142.58;100.00
71666;BME280;59503;53.486;10.196;2023-03-26T01:54:13;70796.91;;;-142.58;100.00
71666;BME280;59503;53.486;10.196;2023-03-26T01:57:02;70796.91;;;-142.58;100.00
71666;BME280;59503;53.486;10.196;2023-03-26T02:02:12;70796.91;;;-142.58;100.00
71666;BME280;59503;53.486;10.196;2023-03-26T02:07:27;70796.91;;;-142.58;100.00
71666;BME280;59503;53.486;10.196;2023-03-26T02:10:02;70796.91;;;-142.58;100.00
71666;BME280;59503;53.486;10.196;2023-03-26T02:12:31;70796.91;;;-142.58;100.00
71666;BME280;59503;53.486;10.196;2023-03-26T02:14:59;70796.91;;;-142.58;100.00
71666;BME280;59503;53.486;10.196;2023-03-26T02:20:40;70796.91;;;-142.58;100.00
71666;BME280;59503;53.486;10.196;2023-03-26T02:23:06;70796.91;;;-142.58;100.00
71666;BME280;59503;53.486;10.196;2023-03-26T02:25:32;70796.91;;;-142.58;100.00
71666;BME280;59503;53.486;10.196;2023-03-26T02:27:59;70796.91;;;-142.58;100.00
71666;BME280;59503;53.486;10.196;2023-03-26T02:30:25;70796.91;;;-142.58;100.00
71666;BME280;59503;53.486;10.196;2023-03-26T02:32:52;70796.91;;;-142.58;100.00
71666;BME280;59503;53.486;10.196;2023-03-26T02:35:19;70796.91;;;-142.58;100.00
71666;BME280;59503;53.486;10.196;2023-03-26T02:37:46;70796.91;;;-142.58;100.00
71666;BME280;59503;53.486;10.196;2023-03-26T02:40:16;70796.91;;;-142.58;100.00
71666;BME280;59503;53.486;10.196;2023-03-26T02:42:42;70796.91;;;-142.58;100.00
71666;BME280;59503;53.486;10.196;2023-03-26T02:45:07;70796.91;;;-142.58;100.00
71666;BME280;59503;53.486;10.196;2023-03-26T02:47:33;70796.91;;;-142.58;100.00
71666;BME280;59503;53.486;10.196;2023-03-26T02:49:59;70796.91;;;-142.58;100.00
71666;BME280;59503;53.486;10.196;2023-03-26T02:52:26;70796.91;;;-142.58;100.00
71666;BME280;59503;53.486;10.196;2023-03-26T02:54:51;70796.91;;;-142.58;100.00
71666;BME280;59503;53.486;10.196;2023-03-26T02:57:18;70796.91;;;-142.58;100.00
71666;BME280;59503;53.486;10.196;2023-03-26T02:59:43;70796.91;;;-142.58;100.00
71666;BME280;59503;53.486;10.196;2023-03-26T03:02:10;70796.91;;;-142.58;100.00
71666;BME280;59503;53.486;10.196;2023-03-26T03:04:37;70796.91;;;-142.58;100.00
71666;BME280;59503;53.486;10.196;2023-03-26T03:07:03;70796.91;;;-142.58;100.00
71666;BME280;59503;53.486;10.196;2023-03-26T03:09:28;70796.91;;;-142.58;100.00
71666;BME280;59503;53.486;10.196;2023-03-26T03:11:54;70796.91;;;-142.58;100.00
71666;BME280;59503;53.486;10.196;2023-03-26T03:14:20;70796.91;;;-142.58;100.00
71666;BME280;59503;53.486;10.196;2023-03-26T03:16:45;70796.91;;;-142.58;100.00
71666;BME280;59503;53.486;10.196;2023-03-26T03:19:11;70796.91;;;-142.58;100.00
71666;BME280;59503;53.486;10.196;2023-03-26T03:21:38;70796.91;;;-142.58;100.00
71666;BME280;59503;53.486;10.196;2023-03-26T03:24:03;70796.91;;;-142.58;100.00
71666;BME280;59503;53.486;10.196;2023-03-26T03:26:29;70796.91;;;-142.58;100.00
71666;BME280;59503;53.486;10.196;2023-03-26T03:28:55;70796.91;;;-142.58;100.00
71666;BME280;59503;53.486;10.196;2023-03-26T03:31:23;70796.91;;;-142.58;100.00
71666;BME280;59503;53.486;10.196;2023-03-26T03:33:50;70796.91;;;-142.58;100.00
71666;BME280;59503;53.486;10.196;2023-03-26T03:36:19;70796.91;;;-142.58;100.00
71666;BME280;59503;53.486;10.196;2023-03-26T03:38:48;70796.91;;;-142.58;100.00
71666;BME280;59503;53.486;10.196;2023-03-26T03:41:13;70796.91;;;-142.58;100.00
71666;BME280;59503;53.486;10.196;2023-03-26T03:43:39;70796.91;;;-142.58;100.00
71666;BME280;59503;53.486;10.196;2023-03-26T03:46:05;70796.91;;;-142.58;100.00
71666;BME280;59503;53.486;10.196;2023-03-26T03:48:31;70796.91;;;-142.58;100.00
71666;BME280;59503;53.486;10.196;2023-03-26T03:50:57;70796.91;;;-142.58;100.00
71666;BME280;59503;53.486;10.196;2023-03-26T03:53:23;70796.91;;;-142.58;100.00
71666;BME280;59503;53.486;10.196;2023-03-26T03:55:54;70796.91;;;-142.58;100.00
71666;BME280;59503;53.486;10.196;2023-03-26T03:58:24;70796.91;;;-142.58;100.00
71666;BME280;59503;53.486;10.196;2023-03-26T04:00:53;70796.91;;;-142.58;100.00
71666;BME280;59503;53.486;10.196;2023-03-26T04:03:29;70796.91;;;-142.58;100.00
71666;BME280;59503;53.486;10.196;2023-03-26T04:05:55;70796.91;;;-142.58;100.00
71666;BME280;59503;53.486;10.196;2023-03-26T04:08:21;70796.91;;;-142.58;100.00
71666;BME280;59503;53.486;10.196;2023-03-26T04:10:47;70796.91;;;-142.58;100.00
71666;BME280;59503;53.486;10.196;2023-03-26T04:13:13;70796.91;;;-142.58;100.00
71666;BME280;59503;53.486;10.196;2023-03-26T04:15:40;70796.91;;;-142.58;100.00
71666;BME280;59503;53.486;10.196;2023-03-26T04:18:07;70796.91;;;-142.58;100.00
71666;BME280;59503;53.486;10.196;2023-03-26T04:20:40;70796.91;;;-142.58;100.00
71666;BME280;59503;53.486;10.196;2023-03-26T04:23:11;70796.91;;;-142.58;100.00
71666;BME280;59503;53.486;10.196;2023-03-26T04:25:40;70796.91;;;-142.58;100.00
71666;BME280;59503;53.486;10.196;2023-03-26T04:28:07;70796.91;;;-142.58;100.00
71666;BME280;59503;53.486;10.196;2023-03-26T04:30:34;70796.91;;;-142.58;100.00
71666;BME280;59503;53.486;10.196;2023-03-26T04:33:03;70796.91;;;-142.58;100.00
71666;BME280;59503;53.486;10.196;2023-03-26T04:35:31;70796.91;;;-142.58;100.00
71666;BME280;59503;53.486;10.196;2023-03-26T04:38:03;70796.91;;;-142.58;100.00
71666;BME280;59503;53.486;10.196;2023-03-26T04:40:31;70796.91;;;-142.58;100.00
71666;BME280;59503;53.486;10.196;2023-03-26T04:43:02;70796.91;;;-142.58;100.00
71666;BME280;59503;53.486;10.196;2023-03-26T04:45:28;70796.91;;;-142.58;100.00
71666;BME280;59503;53.486;10.196;2023-03-26T04:47:57;70796.91;;;-142.58;100.00
71666;BME280;59503;53.486;10.196;2023-03-26T04:50:24;70796.91;;;-142.58;100.00
71666;BME280;59503;53.486;10.196;2023-03-26T04:52:50;70796.91;;;-142.58;100.00
71666;BME280;59503;53.486;10.196;2023-03-26T04:55:32;70796.91;;;-142.58;100.00
71666;BME280;59503;53.486;10.196;2023-03-26T04:57:58;70796.91;;;-142.58;100.00
71666;BME280;59503;53.486;10.196;2023-03-26T05:00:27;70796.91;;;-142.58;100.00
71666;BME280;59503;53.486;10.196;2023-03-26T05:02:53;70796.91;;;-142.58;100.00
71666;BME280;59503;53.486;10.196;2023-03-26T05:05:22;70796.91;;;-142.58;100.00
71666;BME280;59503;53.486;10.196;2023-03-26T05:07:47;70796.91;;;-142.58;100.00
71666;BME280;59503;53.486;10.196;2023-03-26T05:10:14;70796.91;;;-142.58;100.00
71666;BME280;59503;53.486;10.196;2023-03-26T05:12:41;70796.91;;;-142.58;100.00
71666;BME280;59503;53.486;10.196;2023-03-26T05:15:07;70796.91;;;-142.58;100.00
71666;BME280;59503;53.486;10.196;2023-03-26T05:17:32;70796.91;;;-142.58;100.00
71666;BME280;59503;53.486;10.196;2023-03-26T05:20:27;70796.91;;;-142.58;100.00
71666;BME280;59503;53.486;10.196;2023-03-26T05:22:51;70796.91;;;-142.58;100.00
71666;BME280;59503;53.486;10.196;2023-03-26T05:25:17;70796.91;;;-142.58;100.00
71666;BME280;59503;53.486;10.196;2023-03-26T05:27:43;70796.91;;;-142.58;100.00
71666;BME280;59503;53.486;10.196;2023-03-26T05:30:14;70796.91;;;-142.58;100.00
71666;BME280;59503;53.486;10.196;2023-03-26T05:32:40;70796.91;;;-142.58;100.00
71666;BME280;59503;53.486;10.196;2023-03-26T05:35:05;70796.91;;;-142.58;100.00
71666;BME280;59503;53.486;10.196;2023-03-26T05:37:32;70796.91;;;-142.58;100.00
71666;BME280;59503;53.486;10.196;2023-03-26T05:39:58;70796.91;;;-142.58;100.00
71666;BME280;59503;53.486;10.196;2023-03-26T05:42:24;70796.91;;;-142.58;100.00
71666;BME280;59503;53.486;10.196;2023-03-26T05:44:50;70796.91;;;-142.58;100.00
71666;BME280;59503;53.486;10.196;2023-03-26T05:47:15;70796.91;;;-142.58;100.00
71666;BME280;59503;53.486;10.196;2023-03-26T05:49:40;70796.91;;;-142.58;100.00
71666;BME280;59503;53.486;10.196;2023-03-26T05:52:06;70796.91;;;-142.58;100.00
71666;BME280;59503;53.486;10.196;2023-03-26T05:54:31;70796.91;;;-142.58;100.00
71666;BME280;59503;53.486;10.196;2023-03-26T05:56:57;70796.91;;;-142.58;100.00
71666;BME280;59503;53.486;10.196;2023-03-26T05:59:23;70796.91;;;-142.58;100.00
71666;BME280;59503;53.486;10.196;2023-03-26T06:01:49;70796.91;;;-142.58;100.00
71666;BME280;59503;53.486;10.196;2023-03-26T06:04:16;70796.91;;;-142.58;100.00
71666;BME280;59503;53.486;10.196;2023-03-26T06:06:42;70796.91;;;-142.58;100.00
71666;BME280;59503;53.486;10.196;2023-03-26T06:09:09;70796.91;;;-142.58;100.00
71666;BME280;59503;53.486;10.196;2023-03-26T06:11:37;70796.91;;;-142.58;100.00
71666;BME280;59503;53.486;10.196;2023-03-26T06:14:04;70796.91;;;-142.58;100.00
71666;BME280;59503;53.486;10.196;2023-03-26T06:16:30;70796.91;;;-142.58;100.00
71666;BME280;59503;53.486;10.196;2023-03-26T06:18:56;70796.91;;;-142.58;100.00
71666;BME280;59503;53.486;10.196;2023-03-26T06:21:21;70796.91;;;-142.58;100.00
71666;BME280;59503;53.486;10.196;2023-03-26T06:23:47;70796.91;;;-142.58;100.00
71666;BME280;59503;53.486;10.196;2023-03-26T06:26:13;70796.91;;;-142.58;100.00
71666;BME280;59503;53.486;10.196;2023-03-26T06:28:39;70796.91;;;-142.58;100.00
71666;BME280;59503;53.486;10.196;2023-03-26T06:31:05;70796.91;;;-142.58;100.00
71666;BME280;59503;53.486;10.196;2023-03-26T06:33:31;70796.91;;;-142.58;100.00
71666;BME280;59503;53.486;10.196;2023-03-26T06:35:57;70796.91;;;-142.58;100.00
71666;BME280;59503;53.486;10.196;2023-03-26T06:38:22;70796.91;;;-142.58;100.00
71666;BME280;59503;53.486;10.196;2023-03-26T06:40:48;70796.91;;;-142.58;100.00
71666;BME280;59503;53.486;10.196;2023-03-26T06:43:13;70796.91;;;-142.58;100.00
71666;BME280;59503;53.486;10.196;2023-03-26T06:45:39;70796.91;;;-142.58;100.00
71666;BME280;59503;53.486;10.196;2023-03-26T06:48:05;70796.91;;;-142.58;100.00
71666;BME280;59503;53.486;10.196;2023-03-26T06:50:30;70796.91;;;-142.58;100.00
71666;BME280;59503;53.486;10.196;2023-03-26T06:52:57;70796.91;;;-142.58;100.00
71666;BME280;59503;53.486;10.196;2023-03-26T06:55:23;70796.91;;;-142.58;100.00
71666;BME280;59503;53.486;10.196;2023-03-26T06:57:50;70796.91;;;-142.58;100.00
71666;BME280;59503;53.486;10.196;2023-03-26T07:00:16;70796.91;;;-142.58;100.00
71666;BME280;59503;53.486;10.196;2023-03-26T07:02:42;70796.91;;;-142.58;100.00
71666;BME280;59503;53.486;10.196;2023-03-26T07:05:08;70796.91;;;-142.58;100.00
71666;BME280;59503;53.486;10.196;2023-03-26T07:07:34;70796.91;;;-142.58;100.00
71666;BME280;59503;53.486;10.196;2023-03-26T07:09:59;70796.91;;;-142.58;100.00
71666;BME280;59503;53.486;10.196;2023-03-26T07:12:25;70796.91;;;-142.58;100.00
71666;BME280;59503;53.486;10.196;2023-03-26T07:14:51;70796.91;;;-142.58;100.00
71666;BME280;59503;53.486;10.196;2023-03-26T07:17:16;70796.91;;;-142.58;100.00
71666;BME280;59503;53.486;10.196;2023-03-26T07:19:42;70796.91;;;-142.58;100.00
71666;BME280;59503;53.486;10.196;2023-03-26T07:22:14;70796.91;;;-142.58;100.00
71666;BME280;59503;53.486;10.196;2023-03-26T07:24:43;70796.91;;;-142.58;100.00
71666;BME280;59503;53.486;10.196;2023-03-26T07:30:35;70796.91;;;-142.58;100.00
71666;BME280;59503;53.486;10.196;2023-03-26T07:33:10;70796.91;;;-142.58;100.00
71666;BME280;59503;53.486;10.196;2023-03-26T07:36:02;70796.91;;;-142.58;100.00
71666;BME280;59503;53.486;10.196;2023-03-26T07:46:39;70796.91;;;-142.58;100.00
71666;BME280;59503;53.486;10.196;2023-03-26T07:49:05;70796.91;;;-142.58;100.00
71666;BME280;59503;53.486;10.196;2023-03-26T07:51:31;70796.91;;;-142.58;100.00
71666;BME280;59503;53.486;10.196;2023-03-26T07:53:57;70796.91;;;-142.58;100.00
71666;BME280;59503;53.486;10.196;2023-03-26T07:56:34;70796.91;;;-142.58;100.00
71666;BME280;59503;53.486;10.196;2023-03-26T07:59:27;70796.91;;;-142.58;100.00
71666;BME280;59503;53.486;10.196;2023-03-26T08:02:17;70796.91;;;-142.58;100.00
71666;BME280;59503;53.486;10.196;2023-03-26T08:04:57;70796.91;;;-142.58;100.00
71666;BME280;59503;53.486;10.196;2023-03-26T08:10:26;70796.91;;;-142.58;100.00
71666;BME280;59503;53.486;10.196;2023-03-26T08:13:17;70796.91;;;-142.58;100.00
71666;BME280;59503;53.486;10.196;2023-03-26T08:18:34;70796.91;;;-142.58;100.00
71666;BME280;59503;53.486;10.196;2023-03-26T08:21:21;70796.91;;;-142.58;100.00
71666;BME280;59503;53.486;10.196;2023-03-26T08:24:00;70796.91;;;-142.58;100.00
71666;BME280;59503;53.486;10.196;2023-03-26T08:32:13;70796.91;;;-142.58;100.00
71666;BME280;59503;53.486;10.196;2023-03-26T08:34:39;70796.91;;;-142.58;100.00
71666;BME280;59503;53.486;10.196;2023-03-26T08:37:05;70796.91;;;-142.58;100.00
71666;BME280;59503;53.486;10.196;2023-03-26T08:39:30;70796.91;;;-142.58;100.00
71666;BME280;59503;53.486;10.196;2023-03-26T08:50:49;70796.91;;;-142.58;100.00
71666;BME280;59503;53.486;10.196;2023-03-26T09:02:31;70796.91;;;-142.58;100.00
71666;BME280;59503;53.486;10.196;2023-03-26T09:10:51;70796.91;;;-142.58;100.00
71666;BME280;59503;53.486;10.196;2023-03-26T09:16:10;70796.91;;;-142.58;100.00
71666;BME280;59503;53.486;10.196;2023-03-26T09:21:31;70796.91;;;-142.58;100.00
71666;BME280;59503;53.486;10.196;2023-03-26T09:28:34;100397.69;;;8.28;69.91
71666;BME280;59503;53.486;10.196;2023-03-26T09:33:54;100392.59;;;8.80;69.85
71666;BME280;59503;53.486;10.196;2023-03-26T09:36:38;100389.28;;;10.06;68.03
71666;BME280;59503;53.486;10.196;2023-03-26T09:47:17;100406.50;;;9.65;63.59
71666;BME280;59503;53.486;10.196;2023-03-26T09:52:49;100412.13;;;9.53;64.54
71666;BME280;59503;53.486;10.196;2023-03-26T10:01:04;100420.28;;;9.12;63.42
71666;BME280;59503;53.486;10.196;2023-03-26T10:03:40;100413.25;;;9.07;68.10
71666;BME280;59503;53.486;10.196;2023-03-26T10:06:11;100421.84;;;9.13;67.28
71666;BME280;59503;53.486;10.196;2023-03-26T10:08:48;100419.19;;;9.16;67.12
71666;BME280;59503;53.486;10.196;2023-03-26T10:19:56;100415.53;;;8.67;67.52
71666;BME280;59503;53.486;10.196;2023-03-26T10:33:18;100422.34;;;9.86;59.56
71666;BME280;59503;53.486;10.196;2023-03-26T10:36:26;100426.09;;;9.33;60.14
71666;BME280;59503;53.486;10.196;2023-03-26T10:47:27;100416.81;;;9.79;61.75
71666;BME280;59503;53.486;10.196;2023-03-26T10:50:17;100420.44;;;9.90;61.56
71666;BME280;59503;53.486;10.196;2023-03-26T10:52:48;100413.66;;;10.26;58.62
71666;BME280;59503;53.486;10.196;2023-03-26T10:55:36;100418.38;;;10.32;60.02
71666;BME280;59503;53.486;10.196;2023-03-26T10:58:16;100420.25;;;10.02;59.13
71666;BME280;59503;53.486;10.196;2023-03-26T11:03:54;100413.03;;;9.87;64.03
71666;BME280;59503;53.486;10.196;2023-03-26T11:06:32;100406.13;;;9.89;61.49
71666;BME280;59503;53.486;10.196;2023-03-26T11:14:23;100404.84;;;9.83;57.75
71666;BME280;59503;53.486;10.196;2023-03-26T11:19:37;100409.22;;;9.65;58.74
71666;BME280;59503;53.486;10.196;2023-03-26T11:33:41;100399.53;;;10.17;59.76
71666;BME280;59503;53.486;10.196;2023-03-26T11:36:11;100396.97;;;10.57;57.56
71666;BME280;59503;53.486;10.196;2023-03-26T11:38:40;100396.41;;;10.74;56.49
71666;BME280;59503;53.486;10.196;2023-03-26T11:41:26;100386.22;;;10.67;56.48
71666;BME280;59503;53.486;10.196;2023-03-26T11:43:57;100394.19;;;11.19;54.62
71666;BME280;59503;53.486;10.196;2023-03-26T11:46:25;100383.19;;;11.53;56.08
71666;BME280;59503;53.486;10.196;2023-03-26T11:49:03;100388.81;;;10.57;56.62
71666;BME280;59503;53.486;10.196;2023-03-26T11:51:35;100389.38;;;11.06;55.91
71666;BME280;59503;53.486;10.196;2023-03-26T11:54:04;100385.06;;;11.42;54.35
71666;BME280;59503;53.486;10.196;2023-03-26T11:56:51;100380.63;;;11.67;50.14
71666;BME280;59503;53.486;10.196;2023-03-26T11:59:22;100388.28;;;11.14;50.81
71666;BME280;59503;53.486;10.196;2023-03-26T12:04:38;100381.22;;;11.06;53.51
71666;BME280;59503;53.486;10.196;2023-03-26T12:07:19;100382.31;;;10.98;54.85
71666;BME280;59503;53.486;10.196;2023-03-26T12:09:55;100378.47;;;11.02;56.87
71666;BME280;59503;53.486;10.196;2023-03-26T12:12:26;100376.13;;;11.01;55.75
71666;BME280;59503;53.486;10.196;2023-03-26T12:14:52;100371.63;;;10.82;54.08
71666;BME280;59503;53.486;10.196;2023-03-26T12:17:29;100372.22;;;11.39;52.94
71666;BME280;59503;53.486;10.196;2023-03-26T12:19:55;100380.81;;;11.48;51.64
71666;BME280;59503;53.486;10.196;2023-03-26T12:22:38;100372.06;;;11.65;49.84
71666;BME280;59503;53.486;10.196;2023-03-26T12:27:50;100364.31;;;11.70;50.17
71666;BME280;59503;53.486;10.196;2023-03-26T12:32:48;100364.78;;;11.83;51.04
71666;BME280;59503;53.486;10.196;2023-03-26T12:35:16;100370.97;;;11.76;50.38
71666;BME280;59503;53.486;10.196;2023-03-26T12:37:46;100380.88;;;11.55;52.40
71666;BME280;59503;53.486;10.196;2023-03-26T12:42:57;100377.25;;;10.96;52.45
71666;BME280;59503;53.486;10.196;2023-03-26T12:45:29;100364.41;;;10.60;53.40
71666;BME280;59503;53.486;10.196;2023-03-26T12:47:56;100375.75;;;10.36;53.43
71666;BME280;59503;53.486;10.196;2023-03-26T12:50:28;100371.13;;;10.40;52.24
71666;BME280;59503;53.486;10.196;2023-03-26T12:53:10;100377.28;;;10.67;53.06
71666;BME280;59503;53.486;10.196;2023-03-26T12:58:59;100370.66;;;11.41;51.76
71666;BME280;59503;53.486;10.196;2023-03-26T13:01:36;100376.81;;;11.35;52.57
71666;BME280;59503;53.486;10.196;2023-03-26T13:07:02;100364.91;;;12.00;51.90
71666;BME280;59503;53.486;10.196;2023-03-26T13:15:21;100379.28;;;12.76;48.67
71666;BME280;59503;53.486;10.196;2023-03-26T13:21:11;100369.53;;;12.75;49.38
71666;BME280;59503;53.486;10.196;2023-03-26T13:23:50;100369.03;;;12.38;50.15
71666;BME280;59503;53.486;10.196;2023-03-26T13:26:39;100355.53;;;12.77;50.79
71666;BME280;59503;53.486;10.196;2023-03-26T13:31:47;100347.78;;;12.00;50.56
71666;BME280;59503;53.486;10.196;2023-03-26T13:40:23;100361.09;;;13.08;45.82
71666;BME280;59503;53.486;10.196;2023-03-26T13:43:21;100370.72;;;12.74;48.41
71666;BME280;59503;53.486;10.196;2023-03-26T13:46:09;100361.00;;;12.01;49.49
71666;BME280;59503;53.486;10.196;2023-03-26T13:48:44;100356.66;;;12.72;48.13
71666;BME280;59503;53.486;10.196;2023-03-26T13:51:39;100354.31;;;12.64;48.52
71666;BME280;59503;53.486;10.196;2023-03-26T13:54:09;100359.88;;;13.02;45.98
71666;BME280;59503;53.486;10.196;2023-03-26T13:56:39;100352.78;;;12.66;46.08
71666;BME280;59503;53.486;10.196;2023-03-26T14:02:21;100360.19;;;12.76;44.63
71666;BME280;59503;53.486;10.196;2023-03-26T14:04:53;100362.19;;;12.86;45.12
71666;BME280;59503;53.486;10.196;2023-03-26T14:07:31;100363.28;;;12.68;45.13
71666;BME280;59503;53.486;10.196;2023-03-26T14:12:52;100359.19;;;12.16;46.62
71666;BME280;59503;53.486;10.196;2023-03-26T14:15:36;100360.31;;;11.57;48.67
71666;BME280;59503;53.486;10.196;2023-03-26T14:18:32;100352.22;;;11.20;48.54
71666;BME280;59503;53.486;10.196;2023-03-26T14:26:49;100358.06;;;12.27;47.25
71666;BME280;59503;53.486;10.196;2023-03-26T14:38:05;100364.53;;;12.91;44.58
71666;BME280;59503;53.486;10.196;2023-03-26T14:43:56;100366.09;;;12.85;45.95
71666;BME280;59503;53.486;10.196;2023-03-26T14:46:39;100362.16;;;12.83;44.58
71666;BME280;59503;53.486;10.196;2023-03-26T14:54:18;100362.06;;;12.51;47.12
71666;BME280;59503;53.486;10.196;2023-03-26T14:57:20;100368.00;;;12.78;46.77
71666;BME280;59503;53.486;10.196;2023-03-26T15:17:48;100371.47;;;11.01;51.48
71666;BME280;59503;53.486;10.196;2023-03-26T15:40:22;100363.31;;;11.01;52.03
71666;BME280;59503;53.486;10.196;2023-03-26T15:51:30;100369.81;;;10.60;52.90
71666;BME280;59503;53.486;10.196;2023-03-26T15:54:19;100373.94;;;10.80;54.60
71666;BME280;59503;53.486;10.196;2023-03-26T15:57:12;100372.88;;;10.88;52.37
71666;BME280;59503;53.486;10.196;2023-03-26T16:02:42;100381.19;;;10.36;51.51
71666;BME280;59503;53.486;10.196;2023-03-26T16:10:50;100389.78;;;9.41;53.11
71666;BME280;59503;53.486;10.196;2023-03-26T16:13:27;100396.63;;;9.31;55.38
71666;BME280;59503;53.486;10.196;2023-03-26T16:16:08;100389.81;;;8.99;55.10
71666;BME280;59503;53.486;10.196;2023-03-26T16:21:03;100398.66;;;8.73;57.92
71666;BME280;59503;53.486;10.196;2023-03-26T16:23:50;100393.84;;;8.86;57.30
71666;BME280;59503;53.486;10.196;2023-03-26T16:26:21;100396.91;;;8.65;56.96
71666;BME280;59503;53.486;10.196;2023-03-26T16:33:47;100397.13;;;8.57;58.42
71666;BME280;59503;53.486;10.196;2023-03-26T16:50:21;100406.38;;;8.37;59.27
71666;BME280;59503;53.486;10.196;2023-03-26T16:53:04;100411.72;;;8.33;59.11
71666;BME280;59503;53.486;10.196;2023-03-26T16:55:39;100413.06;;;8.24;60.26
71666;BME280;59503;53.486;10.196;2023-03-26T16:58:31;100417.56;;;8.35;59.92
71666;BME280;59503;53.486;10.196;2023-03-26T17:03:45;100415.09;;;8.11;60.86
71666;BME280;59503;53.486;10.196;2023-03-26T17:07:02;100420.00;;;8.06;61.87
71666;BME280;59503;53.486;10.196;2023-03-26T17:10:01;100430.47;;;8.07;62.39
71666;BME280;59503;53.486;10.196;2023-03-26T17:15:27;100432.81;;;7.93;61.88
71666;BME280;59503;53.486;10.196;2023-03-26T17:26:41;100448.91;;;7.55;64.32
71666;BME280;59503;53.486;10.196;2023-03-26T17:34:53;100454.16;;;7.05;66.47
71666;BME280;59503;53.486;10.196;2023-03-26T17:44:42;100464.06;;;6.73;69.88
71666;BME280;59503;53.486;10.196;2023-03-26T17:47:21;100468.13;;;6.67;69.54
71666;BME280;59503;53.486;10.196;2023-03-26T17:49:50;100474.66;;;6.66;71.40
71666;BME280;59503;53.486;10.196;2023-03-26T17:52:24;100479.50;;;6.61;71.21
71666;BME280;59503;53.486;10.196;2023-03-26T17:54:54;100486.28;;;6.55;71.92
71666;BME280;59503;53.486;10.196;2023-03-26T17:57:35;100488.06;;;6.51;71.51
71666;BME280;59503;53.486;10.196;2023-03-26T18:00:05;100488.97;;;6.55;72.60
71666;BME280;59503;53.486;10.196;2023-03-26T18:02:36;100492.25;;;6.60;72.67